createdAt,value
2019-02-06T00:02:38.846Z,-1.20
2019-02-06T00:05:45.568Z,-1.30
2019-02-06T00:08:52.250Z,-1.30
2019-02-06T00:11:59.058Z,-1.30
2019-02-06T00:15:06.270Z,-1.30
2019-02-06T00:18:12.965Z,-1.30
2019-02-06T00:21:20.609Z,-1.30
2019-02-06T00:24:27.614Z,-1.30
2019-02-06T00:27:34.292Z,-1.30
2019-02-06T00:30:41.065Z,-1.30
2019-02-06T00:33:48.346Z,-1.20
2019-02-06T00:36:55.133Z,-1.10
2019-02-06T00:40:01.964Z,-1.10
2019-02-06T00:43:08.655Z,-1.10
2019-02-06T00:46:15.392Z,-1.00
2019-02-06T00:49:22.083Z,-1.00
2019-02-06T00:52:28.801Z,-1.00
2019-02-06T00:55:35.864Z,-0.90
2019-02-06T00:58:42.600Z,-0.90
2019-02-06T01:01:49.526Z,-1.00
2019-02-06T01:04:57.748Z,-1.10
2019-02-06T01:08:04.490Z,-1.10
2019-02-06T01:11:11.216Z,-1.20
2019-02-06T01:14:17.938Z,-1.20
2019-02-06T01:17:25.898Z,-1.20
2019-02-06T01:20:32.842Z,-1.20
2019-02-06T01:23:39.507Z,-1.20
2019-02-06T01:26:46.502Z,-1.30
2019-02-06T01:29:53.163Z,-1.30
2019-02-06T01:33:00.150Z,-1.30
2019-02-06T01:36:07.050Z,-1.30
2019-02-06T01:39:14.107Z,-1.30
2019-02-06T01:42:20.865Z,-1.30
2019-02-06T01:45:27.513Z,-1.30
2019-02-06T01:48:34.908Z,-1.20
2019-02-06T01:51:41.647Z,-1.20
2019-02-06T01:54:48.348Z,-1.20
2019-02-06T01:57:55.078Z,-1.10
2019-02-06T02:01:01.744Z,-1.10
2019-02-06T02:04:08.516Z,-1.10
2019-02-06T02:07:15.202Z,-1.10
2019-02-06T02:10:21.919Z,-1.10
2019-02-06T02:13:28.664Z,-1.10
2019-02-06T02:16:35.357Z,-1.20
2019-02-06T02:19:42.413Z,-1.20
2019-02-06T02:22:49.417Z,-1.20
2019-02-06T02:25:56.134Z,-1.20
2019-02-06T02:29:04.062Z,-1.20
2019-02-06T02:32:10.896Z,-1.20
2019-02-06T02:35:17.600Z,-1.20
2019-02-06T02:38:24.266Z,-1.10
2019-02-06T02:41:31.126Z,-1.10
2019-02-06T02:44:37.770Z,-1.10
2019-02-06T02:47:44.542Z,-1.10
2019-02-06T02:50:51.295Z,-1.00
2019-02-06T02:53:57.992Z,-1.00
2019-02-06T02:57:04.837Z,-0.90
2019-02-06T03:00:19.388Z,-0.90
2019-02-06T03:03:42.550Z,-0.90
2019-02-06T03:06:49.550Z,-0.90
2019-02-06T03:09:56.266Z,-0.80
2019-02-06T03:13:03.029Z,-0.80
2019-02-06T03:16:09.679Z,-0.80
2019-02-06T03:19:16.744Z,-0.80
2019-02-06T03:22:23.456Z,-0.80
2019-02-06T03:25:30.190Z,-0.70
2019-02-06T03:28:37.039Z,-0.70
2019-02-06T03:31:43.756Z,-0.70
2019-02-06T03:34:50.432Z,-0.70
2019-02-06T03:37:57.212Z,-0.70
2019-02-06T03:41:03.930Z,-0.70
2019-02-06T03:44:10.727Z,-0.70
2019-02-06T03:47:17.441Z,-0.70
2019-02-06T03:50:24.302Z,-0.70
2019-02-06T03:53:31.030Z,-0.70
2019-02-06T03:56:37.724Z,-0.60
2019-02-06T03:59:44.722Z,-0.60
2019-02-06T04:02:51.492Z,-0.60
2019-02-06T04:05:58.242Z,-0.60
2019-02-06T04:09:07.920Z,-0.60
2019-02-06T04:12:14.610Z,-0.50
2019-02-06T04:15:21.460Z,-0.50
2019-02-06T04:18:28.280Z,-0.50
2019-02-06T04:21:35.386Z,-0.50
2019-02-06T04:24:42.470Z,-0.50
2019-02-06T04:27:49.220Z,-0.50
2019-02-06T04:30:56.036Z,-0.50
2019-02-06T04:34:03.252Z,-0.50
2019-02-06T04:37:10.111Z,-0.60
2019-02-06T04:40:18.175Z,-0.60
2019-02-06T04:43:25.170Z,-0.70
2019-02-06T04:46:32.016Z,-0.60
2019-02-06T04:49:38.823Z,-0.60
2019-02-06T04:52:45.680Z,-0.60
2019-02-06T04:55:52.334Z,-0.70
2019-02-06T04:59:01.696Z,-0.70
2019-02-06T05:02:08.578Z,-0.70
2019-02-06T05:05:16.108Z,-0.70
2019-02-06T05:08:22.829Z,-0.70
2019-02-06T05:11:29.532Z,-0.80
2019-02-06T05:14:36.490Z,-0.80
2019-02-06T05:17:43.153Z,-0.80
2019-02-06T05:20:49.998Z,-0.80
2019-02-06T05:23:56.755Z,-0.80
2019-02-06T05:27:03.578Z,-0.80
2019-02-06T05:30:10.825Z,-0.80
2019-02-06T05:33:17.644Z,-0.90
2019-02-06T05:36:24.680Z,-0.90
2019-02-06T05:39:31.667Z,-0.90
2019-02-06T05:42:38.446Z,-0.90
2019-02-06T05:45:45.284Z,-0.90
2019-02-06T05:48:52.423Z,-0.90
2019-02-06T05:52:01.148Z,-0.90
2019-02-06T05:55:07.687Z,-0.90
2019-02-06T05:58:14.433Z,-0.90
2019-02-06T06:01:24.933Z,-0.90
2019-02-06T06:04:31.920Z,-0.90
2019-02-06T06:07:45.395Z,-0.90
2019-02-06T06:10:47.394Z,-0.90
2019-02-06T06:13:57.535Z,-1.00
2019-02-06T06:17:04.457Z,-1.00
2019-02-06T06:20:11.813Z,-1.00
2019-02-06T06:23:18.681Z,-1.10
2019-02-06T06:26:25.533Z,-1.10
2019-02-06T06:29:32.647Z,-1.10
2019-02-06T06:32:43.707Z,-1.20
2019-02-06T06:35:52.194Z,-1.40
2019-02-06T06:38:59.569Z,-1.50
2019-02-06T06:42:06.632Z,-1.40
2019-02-06T06:45:15.260Z,-1.50
2019-02-06T06:48:22.932Z,-1.50
2019-02-06T06:51:29.909Z,-1.50
2019-02-06T06:54:37.700Z,-1.40
2019-02-06T06:57:45.063Z,-1.30
2019-02-06T07:00:52.285Z,-1.20
2019-02-06T07:03:59.563Z,-1.20
2019-02-06T07:07:06.869Z,-1.20
2019-02-06T07:10:13.825Z,-1.20
2019-02-06T07:13:21.053Z,-1.10
2019-02-06T07:16:27.987Z,-1.10
2019-02-06T07:19:34.732Z,-1.00
2019-02-06T07:22:41.517Z,-0.90
2019-02-06T07:25:48.250Z,-0.70
2019-02-06T07:28:55.475Z,-0.60
2019-02-06T07:32:06.333Z,-0.50
2019-02-06T07:35:13.314Z,-0.40
2019-02-06T07:38:24.311Z,-0.30
2019-02-06T07:41:29.380Z,-0.30
2019-02-06T07:44:37.613Z,-0.10
2019-02-06T07:47:44.453Z,0.00
2019-02-06T07:50:51.172Z,0.00
2019-02-06T07:53:57.910Z,0.10
2019-02-06T07:57:06.524Z,0.20
2019-02-06T08:00:14.711Z,0.30
2019-02-06T08:03:22.111Z,0.30
2019-02-06T08:06:29.013Z,0.40
2019-02-06T08:09:38.491Z,0.40
2019-02-06T08:12:45.488Z,0.40
2019-02-06T08:15:52.454Z,0.60
2019-02-06T08:18:59.565Z,0.70
2019-02-06T08:22:06.386Z,0.80
2019-02-06T08:25:14.322Z,0.90
2019-02-06T08:28:21.359Z,1.00
2019-02-06T08:31:29.875Z,1.00
2019-02-06T08:34:36.816Z,1.10
2019-02-06T08:37:43.804Z,1.10
2019-02-06T08:40:52.312Z,1.20
2019-02-06T08:44:01.746Z,1.20
2019-02-06T08:47:07.844Z,1.30
2019-02-06T08:50:15.140Z,1.50
2019-02-06T08:53:22.554Z,1.60
2019-02-06T08:56:29.458Z,1.80
2019-02-06T08:59:36.660Z,2.00
2019-02-06T09:02:44.569Z,2.10
2019-02-06T09:05:51.413Z,2.10
2019-02-06T09:09:01.989Z,2.20
2019-02-06T09:12:10.888Z,2.30
2019-02-06T09:15:18.021Z,2.20
2019-02-06T09:18:25.422Z,2.30
2019-02-06T09:21:32.171Z,2.40
2019-02-06T09:24:40.013Z,2.60
2019-02-06T09:27:48.941Z,2.70
2019-02-06T09:30:55.783Z,2.60
2019-02-06T09:34:02.461Z,2.80
2019-02-06T09:37:09.766Z,2.90
2019-02-06T09:40:18.100Z,3.00
2019-02-06T09:43:27.491Z,3.20
2019-02-06T09:46:35.519Z,3.30
2019-02-06T09:49:42.424Z,3.40
2019-02-06T09:52:49.137Z,3.60
2019-02-06T09:55:56.193Z,3.70
2019-02-06T09:59:03.351Z,3.90
2019-02-06T10:02:10.027Z,3.90
2019-02-06T10:05:17.235Z,4.00
2019-02-06T10:08:24.428Z,4.10
2019-02-06T10:11:31.114Z,4.20
2019-02-06T10:14:38.886Z,4.30
2019-02-06T10:17:45.675Z,4.30
2019-02-06T10:20:53.167Z,4.50
2019-02-06T10:24:01.042Z,4.40
2019-02-06T10:27:09.527Z,4.50
2019-02-06T10:30:28.371Z,4.50
2019-02-06T10:33:35.565Z,4.60
2019-02-06T10:36:42.338Z,4.60
2019-02-06T10:39:49.310Z,4.60
2019-02-06T10:42:56.135Z,4.60
2019-02-06T10:46:02.928Z,4.50
2019-02-06T10:49:10.830Z,4.70
2019-02-06T10:52:18.349Z,4.90
2019-02-06T10:55:25.137Z,4.90
2019-02-06T10:58:31.913Z,5.00
2019-02-06T11:01:38.704Z,5.20
2019-02-06T11:04:45.706Z,5.20
2019-02-06T11:07:52.549Z,5.30
2019-02-06T11:10:59.431Z,5.20
2019-02-06T11:14:06.310Z,5.10
2019-02-06T11:17:13.117Z,5.20
2019-02-06T11:20:20.935Z,5.10
2019-02-06T11:23:27.762Z,5.00
2019-02-06T11:26:34.922Z,5.20
2019-02-06T11:29:43.823Z,5.30
2019-02-06T11:32:50.703Z,5.30
2019-02-06T11:35:57.433Z,5.30
2019-02-06T11:39:07.297Z,5.30
2019-02-06T11:42:14.018Z,5.30
2019-02-06T11:45:22.723Z,5.40
2019-02-06T11:48:29.545Z,5.30
2019-02-06T11:51:36.340Z,5.50
2019-02-06T11:54:45.640Z,5.40
2019-02-06T11:57:52.375Z,5.60
2019-02-06T12:01:21.092Z,5.60
2019-02-06T12:04:27.961Z,6.20
2019-02-06T12:07:34.815Z,6.80
2019-02-06T12:10:41.639Z,7.10
2019-02-06T12:13:48.337Z,7.60
2019-02-06T12:16:55.149Z,7.90
2019-02-06T12:20:01.916Z,8.20
2019-02-06T12:23:08.761Z,8.30
2019-02-06T12:26:15.540Z,8.30
2019-02-06T12:29:22.455Z,7.40
2019-02-06T12:32:29.215Z,6.90
2019-02-06T12:35:36.192Z,6.90
2019-02-06T12:38:53.121Z,6.70
2019-02-06T12:41:51.574Z,6.50
2019-02-06T12:44:59.056Z,5.60
2019-02-06T12:48:06.182Z,4.80
2019-02-06T12:51:12.994Z,4.70
2019-02-06T12:54:20.147Z,3.70
2019-02-06T12:57:36.271Z,3.60
2019-02-06T13:00:36.672Z,3.50
2019-02-06T13:03:43.435Z,3.40
2019-02-06T13:06:50.238Z,3.30
2019-02-06T13:09:56.888Z,3.10
2019-02-06T13:13:03.645Z,3.10
2019-02-06T13:16:11.050Z,3.20
2019-02-06T13:19:18.792Z,3.10
2019-02-06T13:22:25.572Z,3.00
2019-02-06T13:25:32.394Z,3.10
2019-02-06T13:28:39.122Z,3.20
2019-02-06T13:31:46.003Z,3.30
2019-02-06T13:34:52.798Z,3.30
2019-02-06T13:37:59.946Z,3.20
2019-02-06T13:41:06.752Z,3.20
2019-02-06T13:44:13.636Z,3.20
2019-02-06T13:47:20.604Z,3.20
2019-02-06T13:50:27.462Z,3.10
2019-02-06T13:53:34.356Z,3.10
2019-02-06T13:56:41.066Z,2.90
2019-02-06T13:59:48.887Z,3.00
2019-02-06T14:02:55.723Z,3.10
2019-02-06T14:06:02.468Z,3.10
2019-02-06T14:09:22.246Z,3.10
2019-02-06T14:12:22.675Z,3.10
2019-02-06T14:15:32.061Z,2.90
2019-02-06T14:18:39.067Z,2.80
2019-02-06T14:21:45.961Z,2.80
2019-02-06T14:24:58.190Z,2.90
2019-02-06T14:29:04.845Z,2.80
2019-02-06T14:33:21.525Z,2.70
2019-02-06T14:37:15.607Z,2.60
2019-02-06T14:41:07.965Z,2.40
2019-02-06T14:44:48.198Z,2.40
2019-02-06T14:48:29.638Z,2.30
2019-02-06T14:52:48.039Z,2.30
2019-02-06T14:56:45.578Z,2.30
2019-02-06T15:00:22.776Z,2.10
2019-02-06T15:03:46.225Z,2.00
2019-02-06T15:07:30.406Z,1.90
2019-02-06T15:10:57.627Z,1.80
2019-02-06T15:14:34.454Z,1.70
2019-02-06T15:18:04.088Z,1.60
2019-02-06T15:21:39.389Z,1.40
2019-02-06T15:25:22.482Z,1.30
2019-02-06T15:29:11.791Z,1.30
2019-02-06T15:32:35.737Z,1.20
2019-02-06T15:36:03.470Z,1.10
2019-02-06T15:39:52.952Z,0.90
2019-02-06T15:43:22.600Z,0.90
2019-02-06T15:46:54.222Z,0.80
2019-02-06T15:50:31.012Z,0.70
2019-02-06T15:54:24.212Z,0.60
2019-02-06T15:58:04.341Z,0.50
2019-02-06T16:01:22.460Z,0.40
2019-02-06T16:05:15.896Z,0.40
2019-02-06T16:09:04.259Z,0.30
2019-02-06T16:12:50.914Z,0.20
2019-02-06T16:16:46.306Z,0.00
2019-02-06T16:20:17.872Z,0.00
2019-02-06T16:23:49.856Z,-0.10
2019-02-06T16:27:35.820Z,-0.10
2019-02-06T16:31:11.331Z,-0.20
2019-02-06T16:35:07.954Z,-0.30
2019-02-06T16:38:58.842Z,-0.30
2019-02-06T16:42:53.573Z,-0.40
2019-02-06T16:46:45.842Z,-0.50
2019-02-06T16:50:29.624Z,-0.50
2019-02-06T16:54:13.311Z,-0.60
2019-02-06T16:58:02.160Z,-0.70
2019-02-06T17:01:58.402Z,-0.80
2019-02-06T17:05:48.275Z,-0.80
2019-02-06T17:09:53.217Z,-0.80
2019-02-06T17:13:37.296Z,-1.00
2019-02-06T17:17:06.492Z,-0.90
2019-02-06T17:21:07.834Z,-0.90
2019-02-06T17:24:46.658Z,-1.00
2019-02-06T17:28:33.986Z,-1.10
2019-02-06T17:32:15.388Z,-1.10
2019-02-06T17:35:45.177Z,-1.20
2019-02-06T17:39:42.280Z,-1.20
2019-02-06T17:43:23.878Z,-1.20
2019-02-06T17:47:22.573Z,-1.20
2019-02-06T17:50:58.142Z,-1.20
2019-02-06T17:54:33.622Z,-1.30
2019-02-06T17:57:40.354Z,-1.30
2019-02-06T18:01:16.711Z,-1.30
2019-02-06T18:04:36.209Z,-1.30
2019-02-06T18:08:02.804Z,-1.30
2019-02-06T18:11:41.978Z,-1.40
2019-02-06T18:15:20.276Z,-1.50
2019-02-06T18:19:00.484Z,-1.40
2019-02-06T18:22:38.920Z,-1.50
2019-02-06T18:26:18.747Z,-1.50
2019-02-06T18:29:58.951Z,-1.50
2019-02-06T18:33:39.871Z,-1.50
2019-02-06T18:36:59.652Z,-1.60
2019-02-06T18:40:08.518Z,-1.70
2019-02-06T18:43:18.393Z,-1.70
2019-02-06T18:46:25.203Z,-1.70
2019-02-06T18:49:32.743Z,-1.80
2019-02-06T18:52:39.890Z,-1.80
2019-02-06T18:55:46.570Z,-1.80
2019-02-06T18:58:53.432Z,-1.90
2019-02-06T19:02:00.394Z,-1.90
2019-02-06T19:05:10.484Z,-1.90
2019-02-06T19:08:17.214Z,-2.00
2019-02-06T19:11:24.735Z,-2.00
2019-02-06T19:14:32.757Z,-2.00
2019-02-06T19:17:39.470Z,-2.10
2019-02-06T19:20:47.158Z,-2.10
2019-02-06T19:23:53.814Z,-2.20
2019-02-06T19:27:00.562Z,-2.20
2019-02-06T19:30:30.640Z,-2.20
2019-02-06T19:33:37.298Z,-2.30
2019-02-06T19:36:44.135Z,-2.30
2019-02-06T19:39:52.385Z,-2.40
2019-02-06T19:43:02.533Z,-2.40
2019-02-06T19:46:07.652Z,-2.50
2019-02-06T19:49:14.364Z,-2.50
2019-02-06T19:52:21.348Z,-2.50
2019-02-06T19:55:28.117Z,-2.60
2019-02-06T19:58:34.915Z,-2.60
2019-02-06T20:01:43.472Z,-2.60
2019-02-06T20:04:50.481Z,-2.70
2019-02-06T20:07:58.380Z,-2.70
2019-02-06T20:11:06.192Z,-2.70
2019-02-06T20:14:13.224Z,-2.70
2019-02-06T20:17:20.020Z,-2.70
2019-02-06T20:20:26.802Z,-2.70
2019-02-06T20:23:34.664Z,-2.70
2019-02-06T20:26:41.417Z,-2.80
2019-02-06T20:29:48.158Z,-2.80
2019-02-06T20:32:54.991Z,-2.80
2019-02-06T20:36:01.741Z,-2.90
2019-02-06T20:39:09.655Z,-2.90
2019-02-06T20:42:17.497Z,-2.90
2019-02-06T20:45:24.272Z,-2.90
2019-02-06T20:48:30.951Z,-2.90
2019-02-06T20:51:37.794Z,-2.90
2019-02-06T20:54:44.789Z,-2.90
2019-02-06T20:57:51.629Z,-2.90
2019-02-06T21:00:58.412Z,-2.90
2019-02-06T21:04:05.552Z,-3.00
2019-02-06T21:07:12.983Z,-3.00
2019-02-06T21:10:22.708Z,-3.00
2019-02-06T21:13:33.275Z,-3.10
2019-02-06T21:16:37.879Z,-3.20
2019-02-06T21:19:45.015Z,-3.20
2019-02-06T21:22:51.708Z,-3.30
2019-02-06T21:25:59.944Z,-3.30
2019-02-06T21:29:07.633Z,-3.40
2019-02-06T21:32:14.567Z,-3.40
2019-02-06T21:35:21.283Z,-3.40
2019-02-06T21:38:28.132Z,-3.40
2019-02-06T21:41:35.325Z,-3.50
2019-02-06T21:44:42.353Z,-3.50
2019-02-06T21:47:49.487Z,-3.50
2019-02-06T21:55:16.910Z,-3.60
2019-02-06T21:58:23.961Z,-3.60
2019-02-06T22:01:31.213Z,-3.60
2019-02-06T22:04:38.235Z,-3.60
2019-02-06T22:07:45.059Z,-3.60
2019-02-06T22:10:52.013Z,-3.60
2019-02-06T22:13:59.097Z,-3.60
2019-02-06T22:17:06.045Z,-3.70
2019-02-06T22:20:14.053Z,-3.80
2019-02-06T22:23:21.227Z,-3.80
2019-02-06T22:26:28.116Z,-3.80
2019-02-06T22:29:34.932Z,-3.80
2019-02-06T22:32:41.686Z,-3.90
2019-02-06T22:35:48.491Z,-3.90
2019-02-06T22:38:55.360Z,-3.90
2019-02-06T22:42:02.206Z,-3.90
2019-02-06T22:45:11.847Z,-3.90
2019-02-06T22:48:18.870Z,-3.90
2019-02-06T22:51:25.689Z,-3.90
2019-02-06T22:54:32.487Z,-3.90
2019-02-06T22:57:39.363Z,-3.90
2019-02-06T23:01:15.210Z,-3.90
2019-02-06T23:04:23.158Z,-3.90
2019-02-06T23:07:29.973Z,-3.90
2019-02-06T23:10:37.240Z,-3.90
2019-02-06T23:13:44.489Z,-3.90
2019-02-06T23:16:51.421Z,-3.80
2019-02-06T23:19:58.228Z,-3.90
2019-02-06T23:23:05.361Z,-3.90
2019-02-06T23:26:12.671Z,-4.00
2019-02-06T23:29:19.506Z,-4.00
2019-02-06T23:32:26.415Z,-4.00
2019-02-06T23:35:33.341Z,-4.00
2019-02-06T23:38:40.599Z,-4.00
2019-02-06T23:41:47.739Z,-4.00
2019-02-06T23:44:54.837Z,-4.00
2019-02-06T23:48:01.685Z,-4.10
2019-02-06T23:51:08.611Z,-4.10
2019-02-06T23:54:15.543Z,-4.10
2019-02-06T23:57:22.372Z,-4.10
